Terminal Aerodrome Forecast
Issued by NWS

Home | Current Version | Previous Version | Text Only | Print | Product List | Glossary On
Versions: 1 2 3 4 5 6 7 8 9 10 11 12 13 14 15 16 17 18 19
000
FTUS43 KPAH 301205 AAA
TAFCGI
TAF AMD
KCGI 301205Z 3012/3112 17008KT P6SM VCSH BKN015
      TEMPO 3013/3015 SCT015 BKN050
     FM301500 19012G19KT P6SM VCSH SCT020 OVC050
      TEMPO 3017/3021 TSRA OVC020CB
     FM302200 25012KT P6SM BKN020 OVC040
     FM310600 33007KT P6SM OVC009=

USA.gov is the U.S. government's official web portal to all federal, state and local government web resources and services.